sensor_id;sensor_type;location;lat;lon;timestamp;temperature;humidity
48535;DHT22;34323;52.022;5.686;2022-08-19T00:01:36;25.50;99.90
48535;DHT22;34323;52.022;5.686;2022-08-19T00:04:05;25.60;99.90
48535;DHT22;34323;52.022;5.686;2022-08-19T00:06:31;25.50;99.90
48535;DHT22;34323;52.022;5.686;2022-08-19T00:08:57;25.50;99.90
48535;DHT22;34323;52.022;5.686;2022-08-19T00:11:24;25.50;99.90
48535;DHT22;34323;52.022;5.686;2022-08-19T00:13:53;25.50;99.90
48535;DHT22;34323;52.022;5.686;2022-08-19T00:16:20;25.60;99.90
48535;DHT22;34323;52.022;5.686;2022-08-19T00:18:47;25.60;99.90
48535;DHT22;34323;52.022;5.686;2022-08-19T00:21:12;25.50;99.90
48535;DHT22;34323;52.022;5.686;2022-08-19T00:23:38;25.50;99.90
48535;DHT22;34323;52.022;5.686;2022-08-19T00:26:04;25.60;99.90
48535;DHT22;34323;52.022;5.686;2022-08-19T00:28:31;25.50;99.90
48535;DHT22;34323;52.022;5.686;2022-08-19T00:30:56;25.40;99.90
48535;DHT22;34323;52.022;5.686;2022-08-19T00:33:22;25.50;99.90
48535;DHT22;34323;52.022;5.686;2022-08-19T00:35:47;25.30;99.90
48535;DHT22;34323;52.022;5.686;2022-08-19T00:38:14;25.40;99.90
48535;DHT22;34323;52.022;5.686;2022-08-19T00:40:40;25.30;99.90
48535;DHT22;34323;52.022;5.686;2022-08-19T00:43:11;25.40;99.90
48535;DHT22;34323;52.022;5.686;2022-08-19T00:45:39;25.50;99.90
48535;DHT22;34323;52.022;5.686;2022-08-19T00:48:07;25.40;99.90
48535;DHT22;34323;52.022;5.686;2022-08-19T00:50:33;25.20;99.90
48535;DHT22;34323;52.022;5.686;2022-08-19T00:52:59;25.20;99.90
48535;DHT22;34323;52.022;5.686;2022-08-19T00:55:30;25.00;99.90
48535;DHT22;34323;52.022;5.686;2022-08-19T00:58:00;25.10;99.90
48535;DHT22;34323;52.022;5.686;2022-08-19T01:00:28;25.20;99.90
48535;DHT22;34323;52.022;5.686;2022-08-19T01:02:55;25.00;99.90
48535;DHT22;34323;52.022;5.686;2022-08-19T01:05:24;24.80;99.90
48535;DHT22;34323;52.022;5.686;2022-08-19T01:07:50;24.80;99.90
48535;DHT22;34323;52.022;5.686;2022-08-19T01:10:25;24.80;99.90
48535;DHT22;34323;52.022;5.686;2022-08-19T01:12:54;24.90;99.90
48535;DHT22;34323;52.022;5.686;2022-08-19T01:15:23;24.80;99.90
48535;DHT22;34323;52.022;5.686;2022-08-19T01:17:51;24.80;99.90
48535;DHT22;34323;52.022;5.686;2022-08-19T01:20:20;24.70;99.90
48535;DHT22;34323;52.022;5.686;2022-08-19T01:22:50;24.90;99.90
48535;DHT22;34323;52.022;5.686;2022-08-19T01:25:18;25.00;99.90
48535;DHT22;34323;52.022;5.686;2022-08-19T01:27:47;24.90;99.90
48535;DHT22;34323;52.022;5.686;2022-08-19T01:30:17;24.80;99.90
48535;DHT22;34323;52.022;5.686;2022-08-19T01:32:42;24.70;99.90
48535;DHT22;34323;52.022;5.686;2022-08-19T01:35:10;24.60;99.90
48535;DHT22;34323;52.022;5.686;2022-08-19T01:37:51;24.60;99.90
48535;DHT22;34323;52.022;5.686;2022-08-19T01:40:19;24.90;99.90
48535;DHT22;34323;52.022;5.686;2022-08-19T01:42:46;24.90;99.90
48535;DHT22;34323;52.022;5.686;2022-08-19T01:45:13;24.80;99.90
48535;DHT22;34323;52.022;5.686;2022-08-19T01:47:38;24.80;99.90
48535;DHT22;34323;52.022;5.686;2022-08-19T01:50:06;25.00;99.90
48535;DHT22;34323;52.022;5.686;2022-08-19T01:52:35;24.90;99.90
48535;DHT22;34323;52.022;5.686;2022-08-19T01:55:00;24.90;99.90
48535;DHT22;34323;52.022;5.686;2022-08-19T01:57:26;24.80;99.90
48535;DHT22;34323;52.022;5.686;2022-08-19T01:59:52;24.70;99.90
48535;DHT22;34323;52.022;5.686;2022-08-19T02:02:17;24.60;99.90
48535;DHT22;34323;52.022;5.686;2022-08-19T02:04:43;24.40;99.90
48535;DHT22;34323;52.022;5.686;2022-08-19T02:07:11;24.10;99.90
48535;DHT22;34323;52.022;5.686;2022-08-19T02:09:36;24.10;99.90
48535;DHT22;34323;52.022;5.686;2022-08-19T02:12:03;24.10;99.90
48535;DHT22;34323;52.022;5.686;2022-08-19T02:14:28;24.10;99.90
48535;DHT22;34323;52.022;5.686;2022-08-19T02:16:54;24.00;99.90
48535;DHT22;34323;52.022;5.686;2022-08-19T02:19:19;24.00;99.90
48535;DHT22;34323;52.022;5.686;2022-08-19T02:21:45;24.00;99.90
48535;DHT22;34323;52.022;5.686;2022-08-19T02:24:10;23.80;99.90
48535;DHT22;34323;52.022;5.686;2022-08-19T02:26:37;23.80;99.90
48535;DHT22;34323;52.022;5.686;2022-08-19T02:29:03;23.80;99.90
48535;DHT22;34323;52.022;5.686;2022-08-19T02:31:29;23.80;99.90
48535;DHT22;34323;52.022;5.686;2022-08-19T02:33:56;24.00;99.90
48535;DHT22;34323;52.022;5.686;2022-08-19T02:36:22;24.10;99.90
48535;DHT22;34323;52.022;5.686;2022-08-19T02:38:49;24.10;99.90
48535;DHT22;34323;52.022;5.686;2022-08-19T02:41:18;23.90;99.90
48535;DHT22;34323;52.022;5.686;2022-08-19T02:43:45;24.00;99.90
48535;DHT22;34323;52.022;5.686;2022-08-19T02:46:12;23.80;99.90
48535;DHT22;34323;52.022;5.686;2022-08-19T02:48:38;24.10;99.90
48535;DHT22;34323;52.022;5.686;2022-08-19T02:51:04;24.10;99.90
48535;DHT22;34323;52.022;5.686;2022-08-19T02:53:30;23.90;99.90
48535;DHT22;34323;52.022;5.686;2022-08-19T02:55:56;23.70;99.90
48535;DHT22;34323;52.022;5.686;2022-08-19T02:58:22;23.80;99.90
48535;DHT22;34323;52.022;5.686;2022-08-19T03:00:52;23.80;99.90
48535;DHT22;34323;52.022;5.686;2022-08-19T03:03:18;23.50;99.90
48535;DHT22;34323;52.022;5.686;2022-08-19T03:05:45;23.80;99.90
48535;DHT22;34323;52.022;5.686;2022-08-19T03:08:12;24.00;99.90
48535;DHT22;34323;52.022;5.686;2022-08-19T03:10:46;23.90;99.90
48535;DHT22;34323;52.022;5.686;2022-08-19T03:13:14;23.60;99.90
48535;DHT22;34323;52.022;5.686;2022-08-19T03:15:42;23.80;99.90
48535;DHT22;34323;52.022;5.686;2022-08-19T03:18:08;24.00;99.90
48535;DHT22;34323;52.022;5.686;2022-08-19T03:20:49;24.10;99.90
48535;DHT22;34323;52.022;5.686;2022-08-19T03:23:16;24.00;99.90
48535;DHT22;34323;52.022;5.686;2022-08-19T03:25:44;24.00;99.90
48535;DHT22;34323;52.022;5.686;2022-08-19T03:28:12;23.70;99.90
48535;DHT22;34323;52.022;5.686;2022-08-19T03:30:40;23.90;99.90
48535;DHT22;34323;52.022;5.686;2022-08-19T03:33:07;23.60;99.90
48535;DHT22;34323;52.022;5.686;2022-08-19T03:35:32;23.80;99.90
48535;DHT22;34323;52.022;5.686;2022-08-19T03:37:59;23.50;99.90
48535;DHT22;34323;52.022;5.686;2022-08-19T03:40:25;23.70;99.90
48535;DHT22;34323;52.022;5.686;2022-08-19T03:42:50;23.40;99.90
48535;DHT22;34323;52.022;5.686;2022-08-19T03:45:16;23.50;99.90
48535;DHT22;34323;52.022;5.686;2022-08-19T03:47:42;23.60;99.90
48535;DHT22;34323;52.022;5.686;2022-08-19T03:50:08;23.50;99.90
48535;DHT22;34323;52.022;5.686;2022-08-19T03:52:34;23.40;99.90
48535;DHT22;34323;52.022;5.686;2022-08-19T03:55:02;23.60;99.90
48535;DHT22;34323;52.022;5.686;2022-08-19T03:57:27;23.50;99.90
48535;DHT22;34323;52.022;5.686;2022-08-19T03:59:53;23.40;99.90
48535;DHT22;34323;52.022;5.686;2022-08-19T04:02:18;23.70;99.90
48535;DHT22;34323;52.022;5.686;2022-08-19T04:04:44;23.80;99.90
48535;DHT22;34323;52.022;5.686;2022-08-19T04:07:12;23.80;99.90
48535;DHT22;34323;52.022;5.686;2022-08-19T04:09:41;23.80;99.90
48535;DHT22;34323;52.022;5.686;2022-08-19T04:12:07;23.80;99.90
48535;DHT22;34323;52.022;5.686;2022-08-19T04:14:33;23.70;99.90
48535;DHT22;34323;52.022;5.686;2022-08-19T04:17:00;23.50;99.90
48535;DHT22;34323;52.022;5.686;2022-08-19T04:19:28;23.80;99.90
48535;DHT22;34323;52.022;5.686;2022-08-19T04:21:55;23.80;99.90
48535;DHT22;34323;52.022;5.686;2022-08-19T04:24:21;23.60;99.90
48535;DHT22;34323;52.022;5.686;2022-08-19T04:26:48;23.50;99.90
48535;DHT22;34323;52.022;5.686;2022-08-19T04:29:18;23.60;99.90
48535;DHT22;34323;52.022;5.686;2022-08-19T04:31:44;23.70;99.90
48535;DHT22;34323;52.022;5.686;2022-08-19T04:34:12;23.60;99.90
48535;DHT22;34323;52.022;5.686;2022-08-19T04:36:39;23.70;99.90
48535;DHT22;34323;52.022;5.686;2022-08-19T04:39:09;23.80;99.90
48535;DHT22;34323;52.022;5.686;2022-08-19T04:41:36;23.50;99.90
48535;DHT22;34323;52.022;5.686;2022-08-19T04:44:20;23.60;99.90
48535;DHT22;34323;52.022;5.686;2022-08-19T04:46:48;23.50;99.90
48535;DHT22;34323;52.022;5.686;2022-08-19T04:49:15;23.70;99.90
48535;DHT22;34323;52.022;5.686;2022-08-19T04:51:44;23.50;99.90
48535;DHT22;34323;52.022;5.686;2022-08-19T04:54:10;23.60;99.90
48535;DHT22;34323;52.022;5.686;2022-08-19T04:56:36;23.60;99.90
48535;DHT22;34323;52.022;5.686;2022-08-19T04:59:02;23.60;99.90
48535;DHT22;34323;52.022;5.686;2022-08-19T05:01:31;23.70;99.90
48535;DHT22;34323;52.022;5.686;2022-08-19T05:04:03;23.50;99.90
48535;DHT22;34323;52.022;5.686;2022-08-19T05:06:30;23.80;99.90
48535;DHT22;34323;52.022;5.686;2022-08-19T05:09:00;23.60;99.90
48535;DHT22;34323;52.022;5.686;2022-08-19T05:11:30;23.30;99.90
48535;DHT22;34323;52.022;5.686;2022-08-19T05:13:57;23.70;99.90
48535;DHT22;34323;52.022;5.686;2022-08-19T05:16:25;23.80;99.90
48535;DHT22;34323;52.022;5.686;2022-08-19T05:18:51;23.80;99.90
48535;DHT22;34323;52.022;5.686;2022-08-19T05:21:36;23.50;99.90
48535;DHT22;34323;52.022;5.686;2022-08-19T05:24:21;23.50;99.90
48535;DHT22;34323;52.022;5.686;2022-08-19T05:26:50;23.50;99.90
48535;DHT22;34323;52.022;5.686;2022-08-19T05:29:19;23.40;99.90
48535;DHT22;34323;52.022;5.686;2022-08-19T05:31:47;23.40;99.90
48535;DHT22;34323;52.022;5.686;2022-08-19T05:34:15;23.60;99.90
48535;DHT22;34323;52.022;5.686;2022-08-19T05:36:42;23.70;99.90
48535;DHT22;34323;52.022;5.686;2022-08-19T05:39:11;23.70;99.90
48535;DHT22;34323;52.022;5.686;2022-08-19T05:41:42;23.70;99.90
48535;DHT22;34323;52.022;5.686;2022-08-19T05:44:07;23.70;99.90
48535;DHT22;34323;52.022;5.686;2022-08-19T05:46:38;23.80;99.90
48535;DHT22;34323;52.022;5.686;2022-08-19T05:49:05;23.40;99.90
48535;DHT22;34323;52.022;5.686;2022-08-19T05:51:33;23.60;99.90
48535;DHT22;34323;52.022;5.686;2022-08-19T05:54:03;23.80;99.90
48535;DHT22;34323;52.022;5.686;2022-08-19T05:56:29;23.70;99.90
48535;DHT22;34323;52.022;5.686;2022-08-19T05:58:56;23.60;99.90
48535;DHT22;34323;52.022;5.686;2022-08-19T06:01:24;23.30;99.90
48535;DHT22;34323;52.022;5.686;2022-08-19T06:03:50;23.20;99.90
48535;DHT22;34323;52.022;5.686;2022-08-19T06:06:16;23.50;99.90
48535;DHT22;34323;52.022;5.686;2022-08-19T06:08:43;23.50;99.90
48535;DHT22;34323;52.022;5.686;2022-08-19T06:11:25;23.20;99.90
48535;DHT22;34323;52.022;5.686;2022-08-19T06:13:59;23.40;99.90
48535;DHT22;34323;52.022;5.686;2022-08-19T06:16:25;23.00;99.90
48535;DHT22;34323;52.022;5.686;2022-08-19T06:18:53;23.40;99.90
48535;DHT22;34323;52.022;5.686;2022-08-19T06:21:21;23.50;99.90
48535;DHT22;34323;52.022;5.686;2022-08-19T06:23:47;23.60;99.90
48535;DHT22;34323;52.022;5.686;2022-08-19T06:26:15;23.80;99.90
48535;DHT22;34323;52.022;5.686;2022-08-19T06:28:41;23.90;99.90
48535;DHT22;34323;52.022;5.686;2022-08-19T06:31:14;23.90;99.90
48535;DHT22;34323;52.022;5.686;2022-08-19T06:33:42;24.10;99.90
48535;DHT22;34323;52.022;5.686;2022-08-19T06:36:15;23.90;99.90
48535;DHT22;34323;52.022;5.686;2022-08-19T06:38:40;23.70;99.90
48535;DHT22;34323;52.022;5.686;2022-08-19T06:41:06;23.30;99.90
48535;DHT22;34323;52.022;5.686;2022-08-19T06:43:31;23.40;99.90
48535;DHT22;34323;52.022;5.686;2022-08-19T06:45:57;23.50;99.90
48535;DHT22;34323;52.022;5.686;2022-08-19T06:48:24;23.80;99.90
48535;DHT22;34323;52.022;5.686;2022-08-19T06:50:50;23.60;99.90
48535;DHT22;34323;52.022;5.686;2022-08-19T06:53:17;23.70;99.90
48535;DHT22;34323;52.022;5.686;2022-08-19T06:55:44;23.50;99.90
48535;DHT22;34323;52.022;5.686;2022-08-19T06:58:10;23.50;99.90
48535;DHT22;34323;52.022;5.686;2022-08-19T07:00:36;23.50;99.90
48535;DHT22;34323;52.022;5.686;2022-08-19T07:03:02;23.60;99.90
48535;DHT22;34323;52.022;5.686;2022-08-19T07:05:28;23.60;99.90
48535;DHT22;34323;52.022;5.686;2022-08-19T07:07:53;23.80;99.90
48535;DHT22;34323;52.022;5.686;2022-08-19T07:10:19;24.10;99.90
48535;DHT22;34323;52.022;5.686;2022-08-19T07:12:45;24.30;99.90
48535;DHT22;34323;52.022;5.686;2022-08-19T07:15:12;24.80;99.90
48535;DHT22;34323;52.022;5.686;2022-08-19T07:17:38;25.00;99.90
48535;DHT22;34323;52.022;5.686;2022-08-19T07:20:06;24.80;99.90
48535;DHT22;34323;52.022;5.686;2022-08-19T07:22:33;24.60;99.90
48535;DHT22;34323;52.022;5.686;2022-08-19T07:24:59;24.80;99.90
48535;DHT22;34323;52.022;5.686;2022-08-19T07:27:25;24.70;99.90
48535;DHT22;34323;52.022;5.686;2022-08-19T07:29:54;24.70;99.90
48535;DHT22;34323;52.022;5.686;2022-08-19T07:32:19;24.40;99.90
48535;DHT22;34323;52.022;5.686;2022-08-19T07:34:45;24.40;99.90
48535;DHT22;34323;52.022;5.686;2022-08-19T07:37:11;24.20;99.90
48535;DHT22;34323;52.022;5.686;2022-08-19T07:39:37;24.30;99.90
48535;DHT22;34323;52.022;5.686;2022-08-19T07:42:06;24.10;99.90
48535;DHT22;34323;52.022;5.686;2022-08-19T07:44:33;23.80;99.90
48535;DHT22;34323;52.022;5.686;2022-08-19T07:47:00;23.80;99.90
48535;DHT22;34323;52.022;5.686;2022-08-19T07:49:26;24.00;99.90
48535;DHT22;34323;52.022;5.686;2022-08-19T07:51:58;24.10;99.90
48535;DHT22;34323;52.022;5.686;2022-08-19T07:54:25;24.20;99.90
48535;DHT22;34323;52.022;5.686;2022-08-19T07:56:52;24.50;99.90
48535;DHT22;34323;52.022;5.686;2022-08-19T07:59:19;24.90;99.90
48535;DHT22;34323;52.022;5.686;2022-08-19T08:01:46;25.30;99.90
48535;DHT22;34323;52.022;5.686;2022-08-19T08:04:12;25.20;99.90
48535;DHT22;34323;52.022;5.686;2022-08-19T08:07:09;25.40;99.90
48535;DHT22;34323;52.022;5.686;2022-08-19T08:09:54;25.30;99.90
48535;DHT22;34323;52.022;5.686;2022-08-19T08:12:23;25.10;99.90
48535;DHT22;34323;52.022;5.686;2022-08-19T08:14:53;25.00;99.90
48535;DHT22;34323;52.022;5.686;2022-08-19T08:17:20;24.60;99.90
48535;DHT22;34323;52.022;5.686;2022-08-19T08:19:47;24.50;99.90
48535;DHT22;34323;52.022;5.686;2022-08-19T08:22:15;24.80;99.90
48535;DHT22;34323;52.022;5.686;2022-08-19T08:25:05;25.00;99.90
48535;DHT22;34323;52.022;5.686;2022-08-19T08:27:31;25.20;99.90
48535;DHT22;34323;52.022;5.686;2022-08-19T08:30:00;25.50;99.90
48535;DHT22;34323;52.022;5.686;2022-08-19T08:32:25;25.70;99.90
48535;DHT22;34323;52.022;5.686;2022-08-19T08:34:52;25.70;99.90
48535;DHT22;34323;52.022;5.686;2022-08-19T08:37:17;25.80;99.90
48535;DHT22;34323;52.022;5.686;2022-08-19T08:39:43;25.90;99.90
48535;DHT22;34323;52.022;5.686;2022-08-19T08:42:20;26.10;99.90
48535;DHT22;34323;52.022;5.686;2022-08-19T08:44:59;26.10;99.90
48535;DHT22;34323;52.022;5.686;2022-08-19T08:47:30;26.30;99.90
48535;DHT22;34323;52.022;5.686;2022-08-19T08:50:19;25.90;99.90
48535;DHT22;34323;52.022;5.686;2022-08-19T08:52:51;26.00;99.90
48535;DHT22;34323;52.022;5.686;2022-08-19T08:55:21;25.90;99.90
48535;DHT22;34323;52.022;5.686;2022-08-19T09:00:18;25.90;99.90
48535;DHT22;34323;52.022;5.686;2022-08-19T09:02:45;25.80;99.90
48535;DHT22;34323;52.022;5.686;2022-08-19T09:05:11;26.00;99.90
48535;DHT22;34323;52.022;5.686;2022-08-19T09:10:31;26.30;99.90
48535;DHT22;34323;52.022;5.686;2022-08-19T09:13:22;26.30;99.90
48535;DHT22;34323;52.022;5.686;2022-08-19T09:16:02;26.50;99.90
48535;DHT22;34323;52.022;5.686;2022-08-19T09:18:49;26.90;99.90
48535;DHT22;34323;52.022;5.686;2022-08-19T09:21:17;27.10;99.90
48535;DHT22;34323;52.022;5.686;2022-08-19T09:23:44;27.20;99.90
48535;DHT22;34323;52.022;5.686;2022-08-19T09:26:13;27.10;99.90
48535;DHT22;34323;52.022;5.686;2022-08-19T09:28:40;27.00;99.90
48535;DHT22;34323;52.022;5.686;2022-08-19T09:31:10;27.20;99.90
48535;DHT22;34323;52.022;5.686;2022-08-19T09:33:36;27.00;99.90
48535;DHT22;34323;52.022;5.686;2022-08-19T09:36:07;26.90;99.90
48535;DHT22;34323;52.022;5.686;2022-08-19T09:38:33;26.70;99.90
48535;DHT22;34323;52.022;5.686;2022-08-19T09:41:04;26.20;99.90
48535;DHT22;34323;52.022;5.686;2022-08-19T09:43:30;26.20;99.90
48535;DHT22;34323;52.022;5.686;2022-08-19T09:45:56;26.20;99.90
48535;DHT22;34323;52.022;5.686;2022-08-19T09:48:22;26.30;99.90
48535;DHT22;34323;52.022;5.686;2022-08-19T09:50:47;26.90;99.90
48535;DHT22;34323;52.022;5.686;2022-08-19T09:53:13;27.20;99.90
48535;DHT22;34323;52.022;5.686;2022-08-19T09:55:43;27.10;99.90
48535;DHT22;34323;52.022;5.686;2022-08-19T09:58:08;27.30;99.90
48535;DHT22;34323;52.022;5.686;2022-08-19T10:00:34;27.40;99.90
48535;DHT22;34323;52.022;5.686;2022-08-19T10:03:02;27.50;99.90
48535;DHT22;34323;52.022;5.686;2022-08-19T10:05:27;27.70;99.90
48535;DHT22;34323;52.022;5.686;2022-08-19T10:08:11;28.00;99.90
48535;DHT22;34323;52.022;5.686;2022-08-19T10:10:37;28.10;99.90
48535;DHT22;34323;52.022;5.686;2022-08-19T10:13:02;28.20;99.90
48535;DHT22;34323;52.022;5.686;2022-08-19T10:15:29;28.20;99.90
48535;DHT22;34323;52.022;5.686;2022-08-19T10:17:55;28.00;99.90
48535;DHT22;34323;52.022;5.686;2022-08-19T10:20:21;28.20;99.90
48535;DHT22;34323;52.022;5.686;2022-08-19T10:22:48;28.20;99.90
48535;DHT22;34323;52.022;5.686;2022-08-19T10:25:13;28.20;99.90
48535;DHT22;34323;52.022;5.686;2022-08-19T10:27:39;28.20;99.90
48535;DHT22;34323;52.022;5.686;2022-08-19T10:30:06;28.70;99.90
48535;DHT22;34323;52.022;5.686;2022-08-19T10:32:32;28.90;99.90
48535;DHT22;34323;52.022;5.686;2022-08-19T10:34:57;28.90;99.90
48535;DHT22;34323;52.022;5.686;2022-08-19T10:37:23;28.70;99.90
48535;DHT22;34323;52.022;5.686;2022-08-19T10:39:48;28.70;99.90
48535;DHT22;34323;52.022;5.686;2022-08-19T10:42:14;28.70;99.90
48535;DHT22;34323;52.022;5.686;2022-08-19T10:44:41;28.10;99.90
48535;DHT22;34323;52.022;5.686;2022-08-19T10:47:07;27.70;99.90
48535;DHT22;34323;52.022;5.686;2022-08-19T10:49:32;27.90;99.90
48535;DHT22;34323;52.022;5.686;2022-08-19T10:52:18;27.90;99.90
48535;DHT22;34323;52.022;5.686;2022-08-19T10:55:03;28.50;99.90
48535;DHT22;34323;52.022;5.686;2022-08-19T10:57:49;28.60;99.90
48535;DHT22;34323;52.022;5.686;2022-08-19T11:00:15;29.00;99.90
48535;DHT22;34323;52.022;5.686;2022-08-19T11:02:41;29.10;99.90
48535;DHT22;34323;52.022;5.686;2022-08-19T11:05:08;29.50;99.90
48535;DHT22;34323;52.022;5.686;2022-08-19T11:07:37;29.20;99.90
48535;DHT22;34323;52.022;5.686;2022-08-19T11:10:03;28.70;99.90
48535;DHT22;34323;52.022;5.686;2022-08-19T11:12:29;28.70;99.90
48535;DHT22;34323;52.022;5.686;2022-08-19T11:14:55;28.90;99.90
48535;DHT22;34323;52.022;5.686;2022-08-19T11:17:21;29.20;99.90
48535;DHT22;34323;52.022;5.686;2022-08-19T11:19:49;29.20;99.90
48535;DHT22;34323;52.022;5.686;2022-08-19T11:22:15;29.10;99.90
48535;DHT22;34323;52.022;5.686;2022-08-19T11:24:43;28.70;99.90
48535;DHT22;34323;52.022;5.686;2022-08-19T11:27:10;29.00;99.90
48535;DHT22;34323;52.022;5.686;2022-08-19T11:29:40;29.50;99.90
48535;DHT22;34323;52.022;5.686;2022-08-19T11:32:09;29.90;99.40
48535;DHT22;34323;52.022;5.686;2022-08-19T11:34:40;30.40;98.80
48535;DHT22;34323;52.022;5.686;2022-08-19T11:37:07;30.50;99.00
48535;DHT22;34323;52.022;5.686;2022-08-19T11:39:34;30.90;99.10
48535;DHT22;34323;52.022;5.686;2022-08-19T11:42:02;31.20;98.80
48535;DHT22;34323;52.022;5.686;2022-08-19T11:44:48;31.20;98.90
48535;DHT22;34323;52.022;5.686;2022-08-19T11:47:14;31.20;98.50
48535;DHT22;34323;52.022;5.686;2022-08-19T11:49:59;31.40;98.50
48535;DHT22;34323;52.022;5.686;2022-08-19T11:52:25;31.70;98.30
48535;DHT22;34323;52.022;5.686;2022-08-19T11:54:50;31.80;98.20
48535;DHT22;34323;52.022;5.686;2022-08-19T11:57:16;31.40;98.00
48535;DHT22;34323;52.022;5.686;2022-08-19T11:59:47;30.90;99.10
48535;DHT22;34323;52.022;5.686;2022-08-19T12:02:13;30.60;99.10
48535;DHT22;34323;52.022;5.686;2022-08-19T12:04:40;30.40;99.40
48535;DHT22;34323;52.022;5.686;2022-08-19T12:07:06;30.30;99.10
48535;DHT22;34323;52.022;5.686;2022-08-19T12:09:31;30.10;99.20
48535;DHT22;34323;52.022;5.686;2022-08-19T12:11:59;29.70;99.90
48535;DHT22;34323;52.022;5.686;2022-08-19T12:14:27;29.90;99.90
48535;DHT22;34323;52.022;5.686;2022-08-19T12:16:53;30.50;99.90
48535;DHT22;34323;52.022;5.686;2022-08-19T12:19:19;30.80;99.50
48535;DHT22;34323;52.022;5.686;2022-08-19T12:21:45;31.20;99.40
48535;DHT22;34323;52.022;5.686;2022-08-19T12:24:11;31.50;98.40
48535;DHT22;34323;52.022;5.686;2022-08-19T12:26:36;31.60;97.90
48535;DHT22;34323;52.022;5.686;2022-08-19T12:29:03;32.10;98.30
48535;DHT22;34323;52.022;5.686;2022-08-19T12:31:29;32.00;97.90
48535;DHT22;34323;52.022;5.686;2022-08-19T12:33:55;31.60;98.30
48535;DHT22;34323;52.022;5.686;2022-08-19T12:36:24;31.30;97.90
48535;DHT22;34323;52.022;5.686;2022-08-19T12:38:51;31.40;97.90
48535;DHT22;34323;52.022;5.686;2022-08-19T12:41:18;31.30;98.40
48535;DHT22;34323;52.022;5.686;2022-08-19T12:43:46;31.50;98.20
48535;DHT22;34323;52.022;5.686;2022-08-19T12:46:13;31.60;98.50
48535;DHT22;34323;52.022;5.686;2022-08-19T12:48:39;32.00;98.20
48535;DHT22;34323;52.022;5.686;2022-08-19T12:51:09;32.40;98.50
48535;DHT22;34323;52.022;5.686;2022-08-19T12:53:36;32.70;97.70
48535;DHT22;34323;52.022;5.686;2022-08-19T12:56:03;32.70;97.40
48535;DHT22;34323;52.022;5.686;2022-08-19T12:58:29;33.20;97.60
48535;DHT22;34323;52.022;5.686;2022-08-19T13:00:55;33.10;97.20
48535;DHT22;34323;52.022;5.686;2022-08-19T13:03:21;33.40;96.40
48535;DHT22;34323;52.022;5.686;2022-08-19T13:05:50;33.40;96.70
48535;DHT22;34323;52.022;5.686;2022-08-19T13:08:16;32.60;96.80
48535;DHT22;34323;52.022;5.686;2022-08-19T13:10:42;32.20;97.50
48535;DHT22;34323;52.022;5.686;2022-08-19T13:13:09;32.00;97.50
48535;DHT22;34323;52.022;5.686;2022-08-19T13:15:40;32.50;97.10
48535;DHT22;34323;52.022;5.686;2022-08-19T13:18:08;32.20;96.90
48535;DHT22;34323;52.022;5.686;2022-08-19T13:20:35;31.50;98.00
48535;DHT22;34323;52.022;5.686;2022-08-19T13:23:01;31.40;98.40
48535;DHT22;34323;52.022;5.686;2022-08-19T13:25:27;31.50;97.70
48535;DHT22;34323;52.022;5.686;2022-08-19T13:27:52;30.70;98.20
48535;DHT22;34323;52.022;5.686;2022-08-19T13:30:19;30.40;98.60
48535;DHT22;34323;52.022;5.686;2022-08-19T13:33:04;30.20;99.00
48535;DHT22;34323;52.022;5.686;2022-08-19T13:38:09;30.60;98.60
48535;DHT22;34323;52.022;5.686;2022-08-19T13:40:36;30.40;99.10
48535;DHT22;34323;52.022;5.686;2022-08-19T13:43:03;30.50;99.60
48535;DHT22;34323;52.022;5.686;2022-08-19T13:45:31;30.70;99.50
48535;DHT22;34323;52.022;5.686;2022-08-19T13:48:01;30.30;99.90
48535;DHT22;34323;52.022;5.686;2022-08-19T13:50:33;30.40;99.90
48535;DHT22;34323;52.022;5.686;2022-08-19T13:52:59;30.20;99.90
48535;DHT22;34323;52.022;5.686;2022-08-19T13:55:26;30.40;99.90
48535;DHT22;34323;52.022;5.686;2022-08-19T13:57:53;30.40;99.90
48535;DHT22;34323;52.022;5.686;2022-08-19T14:00:20;30.20;99.90
48535;DHT22;34323;52.022;5.686;2022-08-19T14:02:46;29.80;99.90
48535;DHT22;34323;52.022;5.686;2022-08-19T14:05:15;29.20;99.90
48535;DHT22;34323;52.022;5.686;2022-08-19T14:07:41;28.80;99.90
48535;DHT22;34323;52.022;5.686;2022-08-19T14:10:09;28.60;99.90
48535;DHT22;34323;52.022;5.686;2022-08-19T14:12:35;28.80;99.90
48535;DHT22;34323;52.022;5.686;2022-08-19T14:15:02;29.30;99.90
48535;DHT22;34323;52.022;5.686;2022-08-19T14:17:28;29.80;99.90
48535;DHT22;34323;52.022;5.686;2022-08-19T14:20:03;30.10;99.90
48535;DHT22;34323;52.022;5.686;2022-08-19T14:22:33;29.90;99.90
48535;DHT22;34323;52.022;5.686;2022-08-19T14:24:58;30.10;99.90
48535;DHT22;34323;52.022;5.686;2022-08-19T14:27:24;30.00;99.90
48535;DHT22;34323;52.022;5.686;2022-08-19T14:29:51;30.00;99.90
48535;DHT22;34323;52.022;5.686;2022-08-19T14:32:17;29.80;99.90
48535;DHT22;34323;52.022;5.686;2022-08-19T14:34:42;29.90;99.90
48535;DHT22;34323;52.022;5.686;2022-08-19T14:37:14;30.00;99.90
48535;DHT22;34323;52.022;5.686;2022-08-19T14:39:43;29.80;99.90
48535;DHT22;34323;52.022;5.686;2022-08-19T14:42:10;29.20;99.90
48535;DHT22;34323;52.022;5.686;2022-08-19T14:44:36;29.00;99.90
48535;DHT22;34323;52.022;5.686;2022-08-19T14:47:02;28.80;99.90
48535;DHT22;34323;52.022;5.686;2022-08-19T14:49:28;28.50;99.90
48535;DHT22;34323;52.022;5.686;2022-08-19T14:51:53;28.50;99.90
48535;DHT22;34323;52.022;5.686;2022-08-19T14:54:20;28.60;99.90
48535;DHT22;34323;52.022;5.686;2022-08-19T14:56:46;28.30;99.90
48535;DHT22;34323;52.022;5.686;2022-08-19T14:59:12;28.40;99.90
48535;DHT22;34323;52.022;5.686;2022-08-19T15:01:38;28.40;99.90
48535;DHT22;34323;52.022;5.686;2022-08-19T15:04:04;28.60;99.90
48535;DHT22;34323;52.022;5.686;2022-08-19T15:06:29;28.80;99.90
48535;DHT22;34323;52.022;5.686;2022-08-19T15:08:55;29.10;99.90
48535;DHT22;34323;52.022;5.686;2022-08-19T15:11:23;28.90;99.90
48535;DHT22;34323;52.022;5.686;2022-08-19T15:13:49;29.00;99.90
48535;DHT22;34323;52.022;5.686;2022-08-19T15:16:16;29.40;99.90
48535;DHT22;34323;52.022;5.686;2022-08-19T15:18:43;29.60;99.90
48535;DHT22;34323;52.022;5.686;2022-08-19T15:21:11;29.80;99.90
48535;DHT22;34323;52.022;5.686;2022-08-19T15:23:42;29.80;99.90
48535;DHT22;34323;52.022;5.686;2022-08-19T15:26:07;29.90;99.90
48535;DHT22;34323;52.022;5.686;2022-08-19T15:28:34;29.70;99.90
48535;DHT22;34323;52.022;5.686;2022-08-19T15:31:00;29.40;99.90
48535;DHT22;34323;52.022;5.686;2022-08-19T15:33:26;29.00;99.90
48535;DHT22;34323;52.022;5.686;2022-08-19T15:35:52;28.70;99.90
48535;DHT22;34323;52.022;5.686;2022-08-19T15:38:19;28.90;99.90
48535;DHT22;34323;52.022;5.686;2022-08-19T15:40:47;29.20;99.90
48535;DHT22;34323;52.022;5.686;2022-08-19T15:43:14;29.10;99.90